Time;durP1;ratioP1;P1;durP2;ratioP2;P2;SDS_P1;SDS_P2;PMS_P1;PMS_P2;Temp;Humidity;BMP_temperature;BMP_pressure;BME280_temperature;BME280_humidity;BME280_pressure;Samples;Min_cycle;Max_cycle;Signal;HPM_P1;HPM_P2
2023/05/20 00:00:24;;;;;;;11.43;5.18;;;12.00;1.00;;;;;;4972784;28;20464;-68
2023/05/20 00:02:50;;;;;;;10.23;5.00;;;12.10;1.00;;;;;;4972168;28;20441;-67
2023/05/20 00:05:15;;;;;;;9.77;5.00;;;12.10;99.90;;;;;;4968148;28;20503;-67
2023/05/20 00:07:41;;;;;;;11.48;5.35;;;12.10;99.90;;;;;;4974409;28;20710;-67
2023/05/20 00:10:07;;;;;;;10.77;5.10;;;12.00;99.90;;;;;;4973440;28;20384;-67
2023/05/20 00:12:33;;;;;;;10.50;5.60;;;12.00;1.00;;;;;;4973531;28;20393;-67
2023/05/20 00:15:00;;;;;;;12.43;6.13;;;11.90;1.00;;;;;;4957046;28;20485;-67
2023/05/20 00:17:27;;;;;;;10.57;5.13;;;11.90;99.90;;;;;;4967114;28;20997;-67
2023/05/20 00:19:53;;;;;;;11.55;5.53;;;11.90;77.80;;;;;;4973734;28;20396;-67
2023/05/20 00:22:19;;;;;;;10.10;5.15;;;11.80;99.90;;;;;;4972961;28;20443;-68
2023/05/20 00:24:44;;;;;;;9.25;5.05;;;11.80;99.90;;;;;;4968886;28;20428;-62
2023/05/20 00:27:10;;;;;;;9.27;5.10;;;11.80;99.90;;;;;;4971392;28;20412;-67
2023/05/20 00:29:36;;;;;;;12.63;5.70;;;11.80;99.90;;;;;;4972330;28;20539;-67
2023/05/20 00:32:01;;;;;;;10.57;4.90;;;11.70;99.90;;;;;;4967183;28;20392;-66
2023/05/20 00:34:27;;;;;;;9.20;5.00;;;11.70;1.00;;;;;;4966908;28;20412;-68
2023/05/20 00:36:53;;;;;;;11.10;5.25;;;11.70;1.00;;;;;;4971189;28;20877;-67
2023/05/20 00:39:18;;;;;;;12.60;6.17;;;11.70;1.00;;;;;;4970821;28;20419;-67
2023/05/20 00:41:44;;;;;;;9.48;4.63;;;11.70;1.00;;;;;;4972166;28;20415;-68
2023/05/20 00:44:10;;;;;;;11.87;5.00;;;11.70;1.00;;;;;;4968447;28;20404;-68
2023/05/20 00:46:36;;;;;;;13.30;5.60;;;11.70;1.00;;;;;;4972260;28;20412;-68
2023/05/20 00:49:01;;;;;;;11.37;5.37;;;11.80;1.00;;;;;;4970210;28;20446;-67
2023/05/20 00:51:27;;;;;;;10.68;5.60;;;11.80;1.00;;;;;;4971675;28;20901;-68
2023/05/20 00:53:53;;;;;;;12.60;5.07;;;11.90;1.00;;;;;;4966822;28;20409;-68
2023/05/20 00:56:20;;;;;;;11.65;5.28;;;11.90;1.00;;;;;;4970770;28;20452;-68
2023/05/20 00:58:46;;;;;;;11.75;5.30;;;12.00;1.00;;;;;;4971666;28;20416;-68
2023/05/20 01:01:12;;;;;;;13.33;5.93;;;12.20;1.00;;;;;;4970241;28;20412;-62
2023/05/20 01:03:37;;;;;;;10.60;5.10;;;12.30;1.00;;;;;;4970054;28;20467;-64
2023/05/20 01:06:03;;;;;;;9.77;5.40;;;12.30;99.90;;;;;;4969884;28;20475;-66
2023/05/20 01:08:29;;;;;;;9.93;5.45;;;12.50;99.90;;;;;;4968366;28;20423;-68
2023/05/20 01:11:10;;;;;;;10.87;5.10;;;13.20;99.90;;;;;;4971024;28;20411;-68
2023/05/20 01:13:41;;;;;;;10.33;5.10;;;12.50;99.90;;;;;;4969157;28;20404;-67
2023/05/20 01:16:09;;;;;;;10.85;5.30;;;12.60;99.90;;;;;;4964640;28;20428;-68
2023/05/20 01:18:35;;;;;;;10.75;5.28;;;12.60;90.90;;;;;;4971114;28;20450;-68
2023/05/20 01:21:02;;;;;;;10.98;5.20;;;12.80;1.00;;;;;;4968893;28;20786;-68
2023/05/20 01:23:39;;;;;;;9.50;4.82;;;12.80;99.90;;;;;;4970095;28;20797;-63
2023/05/20 01:26:05;;;;;;;11.82;4.88;;;13.10;99.90;;;;;;4969763;28;20412;-68
2023/05/20 01:28:32;;;;;;;10.10;5.30;;;13.10;1.00;;;;;;4971055;28;20507;-67
2023/05/20 01:31:01;;;;;;;9.88;4.95;;;13.10;99.90;;;;;;4970553;28;20800;-67
2023/05/20 01:33:28;;;;;;;12.88;5.43;;;13.20;1.00;;;;;;4966983;28;20769;-68
2023/05/20 01:35:54;;;;;;;9.30;4.85;;;13.30;99.90;;;;;;4970162;28;20566;-69
2023/05/20 01:38:22;;;;;;;9.27;5.00;;;13.40;99.90;;;;;;4970183;28;20435;-68
2023/05/20 01:40:48;;;;;;;8.87;4.67;;;13.40;1.00;;;;;;4971252;28;20424;-67
2023/05/20 01:43:16;;;;;;;9.60;4.70;;;13.40;1.00;;;;;;4968913;28;20522;-68
2023/05/20 01:45:42;;;;;;;9.40;5.18;;;13.50;99.90;;;;;;4964709;28;21161;-67
2023/05/20 01:48:10;;;;;;;11.70;5.05;;;13.40;99.90;;;;;;4967995;28;20421;-68
2023/05/20 01:50:39;;;;;;;9.77;4.95;;;13.40;99.90;;;;;;4970470;28;20407;-68
2023/05/20 01:53:07;;;;;;;9.27;4.85;;;13.40;99.90;;;;;;4969181;28;20416;-67
2023/05/20 01:55:33;;;;;;;10.90;4.35;;;13.30;99.90;;;;;;4962110;28;20425;-66
2023/05/20 01:57:58;;;;;;;8.32;4.40;;;13.30;99.90;;;;;;4967006;28;20890;-67
2023/05/20 02:00:24;;;;;;;11.87;5.80;;;13.40;1.00;;;;;;4969969;28;20424;-66
2023/05/20 02:02:49;;;;;;;10.60;4.90;;;13.40;99.90;;;;;;4965952;28;20923;-68
2023/05/20 02:05:15;;;;;;;9.57;4.70;;;13.50;99.90;;;;;;4965965;28;20410;-68
2023/05/20 02:07:41;;;;;;;10.43;4.82;;;13.50;99.90;;;;;;4965372;28;20451;-68
2023/05/20 02:10:07;;;;;;;9.27;4.80;;;13.50;1.00;;;;;;4970445;28;20443;-67
2023/05/20 02:12:33;;;;;;;9.13;4.78;;;13.60;1.00;;;;;;4970362;28;20411;-68
2023/05/20 02:14:59;;;;;;;9.50;4.30;;;13.50;25.20;;;;;;4968685;28;20435;-60
2023/05/20 02:17:25;;;;;;;11.88;4.80;;;13.50;84.40;;;;;;4965377;28;20435;-68
2023/05/20 02:19:51;;;;;;;11.07;4.50;;;13.50;99.90;;;;;;4969587;28;20422;-69
2023/05/20 02:22:17;;;;;;;9.90;4.70;;;13.50;99.90;;;;;;4967424;28;20491;-67
2023/05/20 02:24:43;;;;;;;8.38;4.45;;;13.50;85.00;;;;;;4968855;28;20893;-67
2023/05/20 02:27:09;;;;;;;9.83;5.17;;;13.50;99.90;;;;;;4962553;28;20416;-67
2023/05/20 02:29:35;;;;;;;9.32;4.53;;;13.50;99.90;;;;;;4970281;28;20447;-68
2023/05/20 02:32:01;;;;;;;10.27;4.20;;;13.30;99.90;;;;;;4968914;28;20467;-60
2023/05/20 02:34:28;;;;;;;10.73;4.55;;;13.20;99.90;;;;;;4969907;28;20416;-68
2023/05/20 02:36:55;;;;;;;9.15;4.40;;;13.00;98.50;;;;;;4968264;28;20834;-67
2023/05/20 02:39:21;;;;;;;11.35;4.63;;;13.00;99.90;;;;;;4968248;28;20412;-67
2023/05/20 02:41:46;;;;;;;8.95;4.50;;;13.10;99.90;;;;;;4969235;28;20434;-66
2023/05/20 02:44:12;;;;;;;8.10;4.10;;;13.00;99.90;;;;;;4969612;28;20483;-66
2023/05/20 02:46:38;;;;;;;8.10;4.10;;;13.00;99.90;;;;;;4968656;28;20935;-66
2023/05/20 02:49:03;;;;;;;9.10;4.22;;;13.00;99.90;;;;;;4969091;28;20439;-66
2023/05/20 02:51:30;;;;;;;9.37;4.50;;;13.20;1.00;;;;;;4970313;28;20461;-66
2023/05/20 02:53:56;;;;;;;10.27;4.15;;;13.20;1.00;;;;;;4968339;28;20492;-65
2023/05/20 02:56:23;;;;;;;9.00;4.40;;;13.20;1.00;;;;;;4965711;28;20507;-65
2023/05/20 02:58:49;;;;;;;9.93;4.40;;;13.30;99.90;;;;;;4970573;28;20412;-65
2023/05/20 03:01:15;;;;;;;9.40;4.10;;;13.40;99.90;;;;;;4967749;28;20495;-65
2023/05/20 03:03:41;;;;;;;8.82;3.92;;;13.30;99.90;;;;;;4969041;28;20407;-65
2023/05/20 03:06:07;;;;;;;9.23;4.40;;;13.30;99.90;;;;;;4965418;28;20492;-65
2023/05/20 03:08:33;;;;;;;9.23;4.43;;;13.20;1.00;;;;;;4969030;28;20889;-65
2023/05/20 03:10:59;;;;;;;9.75;4.20;;;13.30;1.00;;;;;;4968505;28;20410;-59
2023/05/20 03:13:25;;;;;;;9.40;4.28;;;13.30;1.00;;;;;;4967098;28;20414;-66
2023/05/20 03:15:51;;;;;;;8.53;4.20;;;13.40;99.90;;;;;;4966895;28;20573;-66
2023/05/20 03:18:17;;;;;;;12.27;4.50;;;13.30;99.90;;;;;;4962772;28;20474;-67
2023/05/20 03:20:42;;;;;;;9.10;4.73;;;13.50;99.90;;;;;;4969450;28;20886;-67
2023/05/20 03:23:08;;;;;;;8.37;3.93;;;13.40;99.90;;;;;;4969923;28;20920;-67
2023/05/20 03:25:35;;;;;;;9.70;4.22;;;13.40;99.90;;;;;;4967726;28;20408;-66
2023/05/20 03:28:01;;;;;;;10.80;4.50;;;13.30;1.00;;;;;;4965075;28;20412;-62
2023/05/20 03:30:27;;;;;;;7.95;3.70;;;13.30;99.90;;;;;;4969140;28;20455;-67
2023/05/20 03:32:56;;;;;;;7.88;3.88;;;13.30;99.90;;;;;;4968403;28;20404;-67
2023/05/20 03:35:22;;;;;;;11.40;4.40;;;13.30;99.90;;;;;;4969374;28;20416;-67
2023/05/20 03:37:47;;;;;;;9.40;4.20;;;13.20;1.00;;;;;;4956599;28;20440;-68
2023/05/20 03:40:13;;;;;;;11.00;4.50;;;13.30;99.90;;;;;;4968930;28;20412;-66
2023/05/20 03:42:39;;;;;;;10.77;4.67;;;13.20;99.90;;;;;;4967293;28;20499;-67
2023/05/20 03:45:05;;;;;;;9.60;4.43;;;13.10;1.00;;;;;;4969320;28;20787;-67
2023/05/20 03:47:31;;;;;;;9.27;4.20;;;13.10;1.00;;;;;;4965883;28;20427;-67
2023/05/20 03:49:56;;;;;;;8.63;4.50;;;13.00;13.40;;;;;;4968200;28;20416;-66
2023/05/20 03:52:22;;;;;;;8.00;4.20;;;13.00;99.90;;;;;;4968967;28;20745;-67
2023/05/20 03:54:47;;;;;;;8.10;3.97;;;13.00;79.10;;;;;;4969454;28;20408;-62
2023/05/20 03:57:13;;;;;;;8.93;4.80;;;12.90;99.90;;;;;;4963054;28;20845;-67
2023/05/20 03:59:39;;;;;;;10.00;4.30;;;12.80;1.00;;;;;;4969738;28;20418;-67
2023/05/20 04:02:05;;;;;;;8.30;4.30;;;12.80;1.00;;;;;;4963545;28;20919;-67
2023/05/20 04:04:31;;;;;;;8.50;4.20;;;12.70;1.00;;;;;;4970231;28;20384;-66
2023/05/20 04:06:59;;;;;;;9.80;4.35;;;12.70;99.90;;;;;;4965656;28;20407;-65
2023/05/20 04:09:25;;;;;;;10.23;4.03;;;12.60;99.90;;;;;;4955260;28;20416;-61
2023/05/20 04:11:51;;;;;;;9.02;5.00;;;12.50;1.00;;;;;;4970273;28;20723;-65
2023/05/20 04:14:16;;;;;;;11.07;4.73;;;12.40;1.00;;;;;;4969651;28;20451;-66
2023/05/20 04:16:42;;;;;;;12.20;5.22;;;12.50;1.00;;;;;;4968340;28;20416;-65
2023/05/20 04:19:08;;;;;;;12.33;4.50;;;12.40;1.00;;;;;;4954114;29;20880;-66
2023/05/20 04:21:33;;;;;;;10.10;4.90;;;12.40;1.00;;;;;;4954255;29;20452;-66
2023/05/20 04:23:59;;;;;;;9.23;4.88;;;12.40;1.00;;;;;;4954071;28;20386;-66
2023/05/20 04:26:25;;;;;;;10.37;4.77;;;12.40;1.00;;;;;;4963143;28;20769;-65
2023/05/20 04:28:51;;;;;;;10.07;5.03;;;12.30;1.00;;;;;;4971358;28;20955;-65
2023/05/20 04:31:17;;;;;;;9.55;5.38;;;12.30;1.00;;;;;;4953431;29;20414;-65
2023/05/20 04:33:43;;;;;;;8.80;4.70;;;12.30;1.00;;;;;;4972027;28;20411;-65
2023/05/20 04:36:10;;;;;;;8.50;4.60;;;12.40;25.60;;;;;;4965288;28;20420;-65
2023/05/20 04:38:38;;;;;;;8.70;4.40;;;12.50;39.10;;;;;;4971903;28;20448;-66
2023/05/20 04:41:05;;;;;;;11.43;5.05;;;12.40;1.00;;;;;;4954670;28;20920;-66
2023/05/20 04:43:32;;;;;;;10.45;4.95;;;12.50;1.00;;;;;;4966524;28;20408;-65
2023/05/20 04:46:00;;;;;;;10.37;5.70;;;12.60;1.00;;;;;;4967200;28;20443;-66
2023/05/20 04:48:26;;;;;;;9.70;5.38;;;11.80;5.50;;;;;;4971222;28;20463;-66
2023/05/20 04:50:53;;;;;;;9.68;5.07;;;12.80;1.00;;;;;;4971489;28;20481;-67
2023/05/20 04:53:20;;;;;;;9.10;4.90;;;12.80;32.90;;;;;;4969873;28;20506;-65
2023/05/20 04:55:47;;;;;;;10.68;4.70;;;12.60;1.00;;;;;;4963444;28;20528;-67
2023/05/20 04:58:16;;;;;;;10.27;4.88;;;12.90;1.00;;;;;;4970427;28;20414;-67
2023/05/20 05:00:42;;;;;;;8.75;4.45;;;13.00;1.00;;;;;;4971521;28;20416;-67
2023/05/20 05:03:08;;;;;;;10.65;4.97;;;13.00;99.90;;;;;;4970975;28;20414;-67
2023/05/20 05:05:35;;;;;;;11.13;5.00;;;13.10;99.90;;;;;;4969144;28;20750;-67
2023/05/20 05:08:02;;;;;;;10.52;5.20;;;13.20;99.90;;;;;;4972642;28;20551;-61
2023/05/20 05:10:28;;;;;;;8.75;4.60;;;13.20;99.90;;;;;;4972437;28;20881;-67
2023/05/20 05:12:54;;;;;;;9.90;4.80;;;13.40;99.90;;;;;;4972568;28;20384;-67
2023/05/20 05:15:20;;;;;;;9.80;4.55;;;13.80;99.90;;;;;;4966940;28;20766;-65
2023/05/20 05:17:45;;;;;;;9.10;4.40;;;14.20;99.90;;;;;;4966316;28;20402;-66
2023/05/20 05:20:11;;;;;;;9.93;4.30;;;15.00;99.90;;;;;;4971603;28;20806;-66
2023/05/20 05:22:38;;;;;;;8.53;4.30;;;15.70;99.90;;;;;;4970491;28;20400;-66
2023/05/20 05:25:05;;;;;;;11.38;4.35;;;16.70;1.00;;;;;;4969091;28;20418;-61
2023/05/20 05:27:31;;;;;;;8.45;3.72;;;17.70;99.90;;;;;;4969728;28;20443;-67
2023/05/20 05:29:57;;;;;;;9.35;4.10;;;18.70;1.00;;;;;;4968984;28;20901;-66
2023/05/20 05:32:22;;;;;;;9.10;3.97;;;19.60;1.00;;;;;;4967233;28;20557;-65
2023/05/20 05:34:48;;;;;;;9.10;4.35;;;20.50;99.90;;;;;;4970409;28;20431;-66
2023/05/20 05:37:15;;;;;;;7.80;3.90;;;21.80;99.90;;;;;;4958924;28;20598;-64
2023/05/20 05:39:41;;;;;;;10.30;5.88;;;22.30;99.90;;;;;;4971001;28;20507;-66
2023/05/20 05:42:06;;;;;;;9.73;6.53;;;22.60;99.90;;;;;;4968593;28;20762;-66
2023/05/20 05:44:32;;;;;;;9.00;4.25;;;23.00;99.90;;;;;;4968713;28;20503;-67
2023/05/20 05:46:58;;;;;;;9.57;4.32;;;22.60;99.90;;;;;;4969008;28;20467;-65
2023/05/20 05:49:23;;;;;;;8.80;4.10;;;22.20;99.90;;;;;;4969469;28;20400;-64
2023/05/20 05:51:50;;;;;;;9.20;3.97;;;22.20;99.90;;;;;;4970351;28;20416;-66
2023/05/20 05:54:15;;;;;;;8.75;4.53;;;22.50;99.90;;;;;;4970350;28;20442;-65
2023/05/20 05:56:41;;;;;;;8.77;3.88;;;22.90;99.90;;;;;;4964773;28;20452;-65
2023/05/20 05:59:07;;;;;;;9.10;4.22;;;23.10;99.90;;;;;;4968852;28;20435;-65
2023/05/20 06:01:32;;;;;;;10.60;4.25;;;22.80;99.90;;;;;;4971396;28;20754;-66
2023/05/20 06:03:58;;;;;;;7.80;3.65;;;23.10;99.90;;;;;;4968535;28;20870;-66
2023/05/20 06:06:24;;;;;;;9.43;4.38;;;23.10;99.90;;;;;;4961679;28;20420;-66
2023/05/20 06:08:50;;;;;;;9.95;3.80;;;23.10;99.90;;;;;;4971666;28;20400;-66
2023/05/20 06:11:15;;;;;;;9.57;4.07;;;23.40;99.90;;;;;;4970503;28;20483;-66
2023/05/20 06:13:41;;;;;;;10.30;9.20;;;23.60;99.90;;;;;;4967433;28;20473;-66
2023/05/20 06:16:07;;;;;;;13.07;7.90;;;23.70;99.90;;;;;;4954550;28;20423;-66
2023/05/20 06:18:32;;;;;;;11.17;8.73;;;23.30;99.90;;;;;;4967111;28;20400;-57
2023/05/20 06:20:58;;;;;;;11.00;9.20;;;23.70;99.90;;;;;;4970888;28;20388;-57
2023/05/20 06:23:25;;;;;;;9.57;8.33;;;24.30;99.90;;;;;;4969125;28;20408;-57
2023/05/20 06:25:51;;;;;;;11.23;10.13;;;25.20;99.90;;;;;;4966673;28;20489;-57
2023/05/20 06:28:16;;;;;;;13.57;12.27;;;25.40;99.90;;;;;;4967540;28;21769;-57
2023/05/20 06:30:42;;;;;;;11.87;10.67;;;25.90;99.90;;;;;;4968967;28;20433;-57
2023/05/20 06:33:08;;;;;;;10.20;6.20;;;26.60;99.90;;;;;;4968602;28;20428;-57
2023/05/20 06:35:34;;;;;;;11.07;9.97;;;26.50;99.90;;;;;;4966482;28;20420;-57
2023/05/20 06:38:00;;;;;;;9.88;8.88;;;26.60;99.90;;;;;;4962722;28;20407;-57
2023/05/20 06:40:26;;;;;;;12.30;10.43;;;27.30;99.90;;;;;;4965659;28;20400;-58
2023/05/20 06:42:52;;;;;;;14.73;10.13;;;27.00;99.90;;;;;;4956798;28;20405;-57
2023/05/20 06:45:18;;;;;;;10.37;9.20;;;26.50;99.90;;;;;;4960958;28;20413;-57
2023/05/20 06:47:43;;;;;;;10.60;9.20;;;25.60;99.90;;;;;;4958489;28;20414;-57
2023/05/20 06:50:10;;;;;;;10.40;7.80;;;25.30;99.90;;;;;;4960418;28;20411;-57
2023/05/20 06:52:36;;;;;;;9.82;4.80;;;25.20;99.90;;;;;;4958718;28;20408;-57
2023/05/20 06:55:04;;;;;;;9.63;5.30;;;24.60;99.90;;;;;;4964010;28;20782;-58
2023/05/20 06:57:30;;;;;;;10.25;6.43;;;24.50;99.90;;;;;;4957763;28;20469;-57
2023/05/20 06:59:55;;;;;;;12.73;7.80;;;23.90;99.90;;;;;;4963691;28;20417;-57
2023/05/20 07:02:21;;;;;;;10.00;7.73;;;23.20;99.90;;;;;;4963196;28;20505;-57
2023/05/20 07:04:47;;;;;;;11.43;7.47;;;22.70;99.90;;;;;;4963415;28;20466;-57
2023/05/20 07:07:12;;;;;;;11.83;7.63;;;22.20;99.90;;;;;;4960090;28;20499;-57
2023/05/20 07:09:38;;;;;;;11.32;7.40;;;21.90;99.90;;;;;;4964116;28;21777;-57
2023/05/20 07:12:04;;;;;;;11.75;6.50;;;21.30;99.90;;;;;;4962949;28;20471;-57
2023/05/20 07:14:30;;;;;;;11.00;6.68;;;21.00;99.90;;;;;;4969282;28;20474;-56
2023/05/20 07:16:55;;;;;;;11.77;6.82;;;20.70;99.90;;;;;;4961798;28;20509;-57
2023/05/20 07:19:21;;;;;;;10.80;6.20;;;20.80;99.90;;;;;;4959163;28;20416;-56
2023/05/20 07:21:48;;;;;;;10.63;6.20;;;21.10;99.90;;;;;;4968121;28;20418;-56
2023/05/20 07:24:14;;;;;;;10.50;5.90;;;21.10;99.90;;;;;;4963047;28;20492;-56
2023/05/20 07:26:40;;;;;;;10.65;6.00;;;20.70;99.90;;;;;;4966828;28;20410;-57
2023/05/20 07:29:06;;;;;;;10.13;5.83;;;20.70;99.90;;;;;;4943320;28;20424;-57
2023/05/20 07:31:31;;;;;;;10.27;5.80;;;20.80;99.90;;;;;;4968764;28;20410;-56
2023/05/20 07:33:57;;;;;;;11.20;6.30;;;20.80;99.90;;;;;;4967754;28;20420;-56
2023/05/20 07:36:22;;;;;;;9.55;5.63;;;21.30;99.90;;;;;;4963878;28;20427;-56
2023/05/20 07:38:48;;;;;;;10.77;5.70;;;22.60;99.90;;;;;;4957289;28;20424;-57
2023/05/20 07:41:14;;;;;;;8.77;5.35;;;23.30;99.90;;;;;;4961457;28;20433;-56
2023/05/20 07:43:39;;;;;;;10.75;6.50;;;23.70;99.90;;;;;;4965725;28;20413;-57
2023/05/20 07:46:05;;;;;;;11.95;6.35;;;24.60;99.90;;;;;;4967701;28;20448;-59
2023/05/20 07:48:31;;;;;;;11.85;6.70;;;24.80;99.90;;;;;;4964535;28;20510;-57
2023/05/20 07:50:58;;;;;;;9.63;6.00;;;23.60;99.90;;;;;;4961899;28;20771;-57
2023/05/20 07:53:24;;;;;;;9.60;6.25;;;23.70;99.90;;;;;;4969039;28;20420;-57
2023/05/20 07:55:50;;;;;;;12.05;6.07;;;25.10;99.90;;;;;;4966890;28;20426;-57
2023/05/20 07:58:15;;;;;;;9.37;6.53;;;26.40;99.90;;;;;;4968606;28;20416;-57
2023/05/20 08:00:42;;;;;;;10.47;7.27;;;27.30;99.90;;;;;;4969355;28;20416;-57
2023/05/20 08:03:08;;;;;;;10.90;6.90;;;26.90;99.90;;;;;;4968285;28;20937;-58
2023/05/20 08:05:36;;;;;;;11.30;7.40;;;25.50;99.90;;;;;;4961377;28;20421;-57
2023/05/20 08:08:02;;;;;;;9.50;6.55;;;24.10;99.90;;;;;;4955109;28;20409;-57
2023/05/20 08:10:28;;;;;;;11.25;6.95;;;24.10;99.90;;;;;;4960783;28;20410;-57
2023/05/20 08:12:53;;;;;;;11.47;7.70;;;25.00;99.90;;;;;;4969953;28;20415;-57
2023/05/20 08:15:19;;;;;;;10.30;6.50;;;25.40;99.90;;;;;;4970467;28;20903;-57
2023/05/20 08:17:45;;;;;;;9.90;6.80;;;25.60;99.90;;;;;;4967460;28;20556;-57
2023/05/20 08:20:11;;;;;;;11.73;6.80;;;25.10;99.90;;;;;;4961616;28;20514;-58
2023/05/20 08:22:37;;;;;;;9.77;6.60;;;24.50;99.90;;;;;;4954371;28;20438;-57
2023/05/20 08:25:06;;;;;;;10.90;7.23;;;24.10;99.90;;;;;;4968381;28;20439;-56
2023/05/20 08:27:32;;;;;;;9.68;6.47;;;24.40;99.90;;;;;;4959066;28;20553;-56
2023/05/20 08:29:57;;;;;;;9.95;5.78;;;25.50;99.90;;;;;;4969583;28;20590;-57
2023/05/20 08:32:23;;;;;;;10.15;7.05;;;27.00;99.90;;;;;;4959027;28;20756;-57
2023/05/20 08:34:49;;;;;;;10.80;7.40;;;27.90;99.90;;;;;;4964775;28;20440;-57
2023/05/20 08:37:15;;;;;;;9.13;6.45;;;26.90;99.90;;;;;;4964795;28;20489;-57
2023/05/20 08:39:41;;;;;;;12.53;7.00;;;26.20;99.90;;;;;;4964449;28;20880;-57
2023/05/20 08:42:10;;;;;;;11.13;6.78;;;25.20;99.90;;;;;;4962256;28;20412;-57
2023/05/20 08:44:36;;;;;;;10.35;6.70;;;24.60;99.90;;;;;;4970552;28;20438;-56
2023/05/20 08:47:03;;;;;;;11.25;7.22;;;24.60;99.90;;;;;;4969895;28;20408;-57
2023/05/20 08:49:30;;;;;;;11.68;6.95;;;24.80;99.90;;;;;;4969712;28;20427;-57
2023/05/20 08:51:58;;;;;;;10.30;6.93;;;25.00;99.90;;;;;;4970233;28;20408;-58
2023/05/20 08:54:30;;;;;;;10.63;6.80;;;24.60;99.90;;;;;;4964105;28;20416;-57
2023/05/20 08:56:55;;;;;;;11.13;6.23;;;24.40;99.90;;;;;;4968400;28;20515;-57
2023/05/20 08:59:22;;;;;;;10.63;6.60;;;24.00;99.90;;;;;;4959316;28;20541;-57
2023/05/20 09:01:47;;;;;;;10.10;6.82;;;23.90;99.90;;;;;;4972058;28;20431;-57
2023/05/20 09:04:13;;;;;;;10.07;7.03;;;23.20;99.90;;;;;;4970879;28;20505;-57
2023/05/20 09:06:45;;;;;;;11.18;6.90;;;23.10;99.90;;;;;;4966143;28;20411;-57
2023/05/20 09:09:14;;;;;;;12.82;6.88;;;23.80;99.90;;;;;;4958692;28;20417;-57
2023/05/20 09:11:41;;;;;;;9.25;6.50;;;24.50;99.90;;;;;;4969693;28;20416;-57
2023/05/20 09:14:07;;;;;;;9.43;6.23;;;25.50;99.90;;;;;;4962389;28;20420;-58
2023/05/20 09:16:33;;;;;;;10.30;7.20;;;25.40;99.90;;;;;;4970968;28;20412;-65
2023/05/20 09:18:59;;;;;;;10.15;6.43;;;25.30;99.90;;;;;;4964678;28;20500;-65
2023/05/20 09:21:29;;;;;;;9.97;5.90;;;25.60;99.90;;;;;;4970166;28;20589;-66
2023/05/20 09:23:57;;;;;;;9.68;6.28;;;26.20;99.90;;;;;;4969872;28;20412;-66
2023/05/20 09:26:26;;;;;;;10.35;6.95;;;26.50;99.90;;;;;;4967458;28;20423;-66
2023/05/20 09:28:52;;;;;;;10.00;6.75;;;26.50;99.90;;;;;;4966902;28;20562;-66
2023/05/20 09:31:17;;;;;;;11.15;7.00;;;26.80;99.90;;;;;;4969330;28;20507;-65
2023/05/20 09:33:43;;;;;;;10.30;7.47;;;26.90;99.90;;;;;;4969738;28;20726;-65
2023/05/20 09:36:10;;;;;;;11.43;8.13;;;28.20;99.90;;;;;;4968038;28;20420;-60
2023/05/20 09:38:38;;;;;;;11.52;7.72;;;29.20;99.90;;;;;;4971464;28;20406;-61
2023/05/20 09:41:12;;;;;;;10.25;8.70;;;28.40;99.90;;;;;;4970950;28;20403;-64
2023/05/20 09:43:41;;;;;;;10.70;8.93;;;29.10;99.90;;;;;;4970963;28;20401;-63
2023/05/20 09:46:07;;;;;;;10.53;9.30;;;29.40;99.90;;;;;;4953831;28;20400;-60
2023/05/20 09:48:36;;;;;;;10.30;8.63;;;28.30;99.90;;;;;;4969393;28;20412;-63
2023/05/20 09:51:03;;;;;;;12.20;7.93;;;27.60;99.90;;;;;;4970187;28;20415;-64
2023/05/20 09:53:29;;;;;;;10.80;7.90;;;26.90;99.90;;;;;;4969544;28;20589;-64
2023/05/20 09:55:55;;;;;;;9.70;7.30;;;26.20;99.90;;;;;;4968158;28;20826;-63
2023/05/20 09:58:22;;;;;;;9.57;6.80;;;26.50;99.90;;;;;;4967995;28;20420;-63
2023/05/20 10:00:48;;;;;;;9.77;6.50;;;26.60;99.90;;;;;;4966214;28;20759;-63
2023/05/20 10:03:13;;;;;;;11.00;6.90;;;26.90;99.90;;;;;;4968547;28;20427;-65
2023/05/20 10:05:48;;;;;;;10.57;7.80;;;27.50;99.90;;;;;;4968068;28;20415;-64
2023/05/20 10:08:33;;;;;;;10.10;7.25;;;27.80;99.90;;;;;;4968587;28;20406;-63
2023/05/20 10:11:09;;;;;;;10.02;7.10;;;28.80;99.90;;;;;;4968948;28;20515;-63
2023/05/20 10:13:54;;;;;;;10.35;9.25;;;29.30;99.90;;;;;;4963491;28;20416;-64
2023/05/20 10:16:52;;;;;;;11.30;10.20;;;28.90;99.90;;;;;;4958664;28;20481;-64
2023/05/20 10:19:28;;;;;;;10.57;8.35;;;29.40;99.90;;;;;;4969538;28;20419;-65
2023/05/20 10:22:05;;;;;;;11.63;8.80;;;30.00;99.90;;;;;;4970680;28;20396;-63
2023/05/20 10:24:39;;;;;;;11.00;9.90;;;28.80;99.90;;;;;;4969856;28;20419;-63
2023/05/20 10:27:10;;;;;;;11.60;7.70;;;27.50;99.90;;;;;;4969180;28;20483;-64
2023/05/20 10:29:45;;;;;;;10.60;7.95;;;27.20;99.90;;;;;;4963033;28;21012;-66
2023/05/20 10:32:11;;;;;;;9.70;6.90;;;27.00;99.90;;;;;;4968478;28;20467;-62
2023/05/20 10:34:48;;;;;;;9.60;7.10;;;26.80;99.90;;;;;;4970763;28;20392;-65
2023/05/20 10:37:25;;;;;;;10.10;7.10;;;26.80;99.90;;;;;;4965447;28;20459;-63
2023/05/20 10:39:51;;;;;;;12.18;7.30;;;26.50;99.90;;;;;;4966930;28;20413;-63
2023/05/20 10:42:28;;;;;;;11.00;6.70;;;26.10;99.90;;;;;;4969465;28;20554;-65
2023/05/20 10:44:53;;;;;;;10.47;7.70;;;26.00;99.90;;;;;;4967635;28;20414;-64
2023/05/20 10:47:19;;;;;;;11.15;7.60;;;26.30;99.90;;;;;;4967411;28;20778;-64
2023/05/20 10:49:46;;;;;;;9.63;7.47;;;26.40;99.90;;;;;;4963503;28;20398;-62
2023/05/20 10:52:17;;;;;;;10.20;7.10;;;26.30;99.90;;;;;;4963132;28;20388;-61
2023/05/20 10:54:53;;;;;;;9.45;6.82;;;26.10;99.90;;;;;;4964801;28;20487;-63
2023/05/20 10:57:21;;;;;;;9.93;7.20;;;26.50;99.90;;;;;;4965686;28;20787;-64
2023/05/20 10:59:48;;;;;;;10.88;7.30;;;26.90;99.90;;;;;;4960697;28;20428;-64
2023/05/20 11:02:15;;;;;;;12.50;7.10;;;26.20;99.90;;;;;;4964395;28;20416;-65
2023/05/20 11:04:45;;;;;;;9.80;6.30;;;25.70;99.90;;;;;;4966579;28;20411;-66
2023/05/20 11:07:11;;;;;;;10.75;6.90;;;25.60;99.90;;;;;;4959512;28;20408;-61
2023/05/20 11:09:38;;;;;;;10.27;6.78;;;25.20;99.90;;;;;;4961243;28;20400;-66
2023/05/20 11:12:04;;;;;;;8.73;6.18;;;24.70;99.90;;;;;;4967239;28;20740;-67
2023/05/20 11:14:30;;;;;;;9.50;6.43;;;24.50;99.90;;;;;;4968825;28;20902;-67
2023/05/20 11:16:58;;;;;;;9.32;6.25;;;24.80;99.90;;;;;;4967043;28;20420;-67
2023/05/20 11:19:25;;;;;;;9.60;6.63;;;25.10;99.90;;;;;;4968646;28;20392;-67
2023/05/20 11:21:51;;;;;;;8.90;6.22;;;24.70;99.90;;;;;;4969654;28;20853;-64
2023/05/20 11:24:27;;;;;;;9.25;6.50;;;24.80;99.90;;;;;;4965275;28;20404;-64
2023/05/20 11:26:54;;;;;;;10.93;7.30;;;25.20;99.90;;;;;;4964800;28;20402;-65
2023/05/20 11:29:21;;;;;;;8.80;6.15;;;25.30;99.90;;;;;;4972355;28;20406;-66
2023/05/20 11:31:48;;;;;;;10.10;6.60;;;25.50;99.90;;;;;;4966852;28;20539;-66
2023/05/20 11:34:14;;;;;;;9.60;6.28;;;25.20;99.90;;;;;;4967989;28;20491;-62
2023/05/20 11:36:43;;;;;;;9.00;6.13;;;25.00;99.90;;;;;;4973614;28;20495;-66
2023/05/20 11:39:13;;;;;;;11.40;7.25;;;24.90;99.90;;;;;;4971457;28;20449;-61
2023/05/20 11:41:41;;;;;;;11.63;7.20;;;24.60;99.90;;;;;;4968940;28;21015;-66
2023/05/20 11:44:13;;;;;;;11.83;7.20;;;24.50;99.90;;;;;;4970508;28;20427;-66
2023/05/20 11:46:46;;;;;;;11.35;7.07;;;24.20;99.90;;;;;;4972538;28;20416;-65
2023/05/20 11:49:12;;;;;;;10.60;7.07;;;24.10;99.90;;;;;;4971316;28;20423;-62
2023/05/20 11:51:38;;;;;;;9.88;6.85;;;24.10;99.90;;;;;;4968204;28;20416;-66
2023/05/20 11:54:06;;;;;;;10.63;7.32;;;24.30;99.90;;;;;;4964726;28;20477;-65
2023/05/20 11:56:36;;;;;;;10.73;6.83;;;24.80;99.90;;;;;;4971165;28;20439;-66
2023/05/20 11:59:03;;;;;;;10.13;6.70;;;24.90;99.90;;;;;;4973556;28;20921;-66
2023/05/20 12:01:42;;;;;;;10.35;7.70;;;25.00;99.90;;;;;;4972562;28;20420;-67
2023/05/20 12:04:09;;;;;;;10.17;6.90;;;24.80;99.90;;;;;;4971813;28;20415;-61
2023/05/20 12:06:36;;;;;;;9.93;6.45;;;25.10;99.90;;;;;;4970594;28;20418;-67
2023/05/20 12:09:06;;;;;;;11.23;6.63;;;24.20;99.90;;;;;;4973335;28;20388;-66
2023/05/20 12:11:35;;;;;;;10.30;7.27;;;24.00;99.90;;;;;;4961754;28;20519;-68
2023/05/20 12:14:02;;;;;;;10.43;7.40;;;23.90;99.90;;;;;;4962888;28;20408;-67
2023/05/20 12:16:30;;;;;;;9.50;7.10;;;24.40;99.90;;;;;;4963426;28;20426;-66
2023/05/20 12:18:56;;;;;;;9.77;7.05;;;24.60;99.90;;;;;;4971396;28;20452;-66
2023/05/20 12:21:21;;;;;;;9.80;6.80;;;24.80;99.90;;;;;;4971120;28;20896;-67
2023/05/20 12:23:47;;;;;;;10.02;7.07;;;25.20;99.90;;;;;;4972495;28;20384;-67
2023/05/20 12:26:12;;;;;;;9.30;6.35;;;25.90;99.90;;;;;;4968786;28;20428;-61
2023/05/20 12:28:39;;;;;;;9.20;6.30;;;25.60;99.90;;;;;;4968680;28;20393;-66
2023/05/20 12:31:04;;;;;;;9.87;7.10;;;25.70;99.90;;;;;;4966062;28;20452;-66
2023/05/20 12:33:30;;;;;;;10.40;6.80;;;25.80;99.90;;;;;;4969497;28;20739;-68
2023/05/20 12:35:56;;;;;;;9.60;6.90;;;25.90;99.90;;;;;;4971425;28;20983;-67
2023/05/20 12:38:22;;;;;;;9.55;6.47;;;26.20;99.90;;;;;;4969706;28;20471;-68
2023/05/20 12:40:47;;;;;;;9.60;6.40;;;26.50;99.90;;;;;;4972424;28;20416;-67